This is the latest recevied weather packets stored in our database for station/object IV6ZJU-13. If no packets are shown the sender has not sent any weather packets the latest 10 day(s).
| Time | Temp. | Humidity | Pressure | Rain* | Wind** | Luminosity | Snow |
|---|---|---|---|---|---|---|---|
| 1777538350 | 13.89° C | 75% | 1013 hPa | - | - | - | - |
| 1777537450 | 13.89° C | 75% | 1012.8 hPa | - | - | - | - |
| 1777536550 | 14.44° C | 80% | 1012.6 hPa | - | - | - | - |
| 1777535650 | 14.44° C | 82% | 1012.5 hPa | - | - | - | - |
| 1777534750 | 13.89° C | 80% | 1012.3 hPa | - | - | - | - |
| 1777533850 | 13.89° C | 81% | 1012.4 hPa | - | - | - | - |
| 1777532949 | 13.89° C | 85% | 1012.2 hPa | - | - | - | - |
| 1777532049 | 13.89° C | 83% | 1012 hPa | - | - | - | - |
| 1777531149 | 13.89° C | 80% | 1011.9 hPa | - | - | - | - |
| 1777530249 | 13.89° C | 86% | 1011.7 hPa | - | - | - | - |
| 1777529349 | 13.89° C | 82% | 1011.5 hPa | - | - | - | - |
| 1777528449 | 13.89° C | 86% | 1011.5 hPa | - | - | - | - |
| 1777527549 | 14.44° C | 84% | 1011.2 hPa | - | - | - | - |
| 1777526648 | 15° C | 81% | 1010.7 hPa | - | - | - | - |
| 1777525748 | 15° C | 84% | 1010.6 hPa | - | - | - | - |
| 1777524848 | 15° C | 82% | 1010.4 hPa | - | - | - | - |
| 1777523948 | 14.44° C | 82% | 1010.3 hPa | - | - | - | - |
| 1777523048 | 15° C | 85% | 1010.2 hPa | - | - | - | - |
| 1777522147 | 14.44° C | 90% | 1009.8 hPa | - | - | - | - |
| 1777503248 | 17.78° C | 91% | 1008.5 hPa | - | - | - | - |
| 1777502348 | 17.22° C | 92% | 1008.5 hPa | - | - | - | - |
| 1777501448 | 17.78° C | 91% | 1008.5 hPa | - | - | - | - |
| 1777500548 | 17.78° C | 91% | 1008.4 hPa | - | - | - | - |
| 1777499650 | 17.78° C | 94% | 1008.2 hPa | - | - | - | - |
| 1777498750 | 18.33° C | 93% | 1008.1 hPa | - | - | - | - |
* Rain since midnight (hover to see other rain measurements)
** Current wind speed in m/s (hover to see current wind gust speed)